Silver Lake, Pennsylvania
Current Conditions -  °F | °C
As of 7:56 PM on Friday 28 Nov 2014 (Local Time) from KCXY Reporting Station
Clear Clear  
Wind Chill: 21°   Ceiling: Unl
Heat Index: 28°   Visibility: 10mi
Dew Point: 15°   Wind: 7mph
Humidity: 58%   Direction: 250°WSW
Pressure: 30.29"   Gusts: NA
Location:  40.1328°N, 76.8833°W
Report Text: KCXY 290056Z 25006KT 10SM CLR M02/M09 A3029 RMK AO2 SLP261 T10221094
Loading
Personal Weather Stations






























Interactive Weather Map New forecast layout! Learn more

10-Day Weather Forecast

Advertisements
Track Severe Weather on mobile